createdAt,value
2022-08-12T00:00:16.773Z,21.5
2022-08-12T00:03:28.916Z,21.4
2022-08-12T00:06:41.076Z,21.4
2022-08-12T00:09:53.232Z,21.4
2022-08-12T00:13:05.391Z,21.4
2022-08-12T00:16:17.537Z,21.4
2022-08-12T00:19:29.686Z,21.4
2022-08-12T00:22:40.844Z,21.3
2022-08-12T00:25:53.011Z,21.3
2022-08-12T00:29:05.160Z,21.2
2022-08-12T00:32:17.315Z,21.2
2022-08-12T00:35:29.452Z,21.1
2022-08-12T00:38:41.614Z,21.1
2022-08-12T00:41:53.770Z,21.1
2022-08-12T00:45:04.940Z,21
2022-08-12T00:48:16.109Z,20.9
2022-08-12T00:51:27.276Z,20.8
2022-08-12T00:54:38.458Z,20.8
2022-08-12T00:57:49.621Z,20.7
2022-08-12T01:01:00.795Z,20.7
2022-08-12T01:04:12.948Z,20.7
2022-08-12T01:07:25.094Z,20.7
2022-08-12T01:10:37.254Z,20.6
2022-08-12T01:13:49.398Z,20.6
2022-08-12T01:17:01.557Z,20.5
2022-08-12T01:20:13.712Z,20.5
2022-08-12T01:23:25.855Z,20.4
2022-08-12T01:26:37.999Z,20.4
2022-08-12T01:29:50.159Z,20.3
2022-08-12T01:33:02.308Z,20.3
2022-08-12T01:36:14.458Z,20.3
2022-08-12T01:39:26.614Z,20.2
2022-08-12T01:42:37.781Z,20.2
2022-08-12T01:45:49.936Z,20.2
2022-08-12T01:49:02.090Z,20.1
2022-08-12T01:52:14.231Z,20.1
2022-08-12T01:55:26.383Z,20
2022-08-12T01:58:38.540Z,20
2022-08-12T02:01:50.697Z,20
2022-08-12T02:05:01.869Z,19.9
2022-08-12T02:08:13.022Z,19.9
2022-08-12T02:11:24.203Z,19.9
2022-08-12T02:14:35.388Z,19.8
2022-08-12T02:17:47.535Z,19.7
2022-08-12T02:20:58.717Z,19.7
2022-08-12T02:24:09.880Z,19.6
2022-08-12T02:27:22.038Z,19.5
2022-08-12T02:30:34.194Z,19.4
2022-08-12T02:33:46.343Z,19.4
2022-08-12T02:36:58.493Z,19.4
2022-08-12T02:40:10.643Z,19.4
2022-08-12T02:43:22.798Z,19.4
2022-08-12T02:46:34.946Z,19.5
2022-08-12T02:49:47.093Z,19.4
2022-08-12T02:52:59.254Z,19.4
2022-08-12T02:56:11.403Z,19.4
2022-08-12T02:59:23.567Z,19.4
2022-08-12T03:02:35.715Z,19.3
2022-08-12T03:05:46.884Z,19.2
2022-08-12T03:08:59.037Z,19.2
2022-08-12T03:12:11.178Z,19.2
2022-08-12T03:15:23.341Z,19.2
2022-08-12T03:18:35.494Z,19.2
2022-08-12T03:21:47.642Z,19.1
2022-08-12T03:24:59.786Z,19.1
2022-08-12T03:28:10.975Z,19.1
2022-08-12T03:31:22.135Z,19
2022-08-12T03:34:34.284Z,18.9
2022-08-12T03:37:46.443Z,18.9
2022-08-12T03:40:58.596Z,18.8
2022-08-12T03:44:10.746Z,18.8
2022-08-12T03:47:22.884Z,18.8
2022-08-12T03:50:35.044Z,18.8
2022-08-12T03:53:47.192Z,18.8
2022-08-12T03:56:59.355Z,18.8
2022-08-12T04:00:11.493Z,18.8
2022-08-12T04:03:23.650Z,18.8
2022-08-12T04:06:35.798Z,18.6
2022-08-12T04:09:47.949Z,18.5
2022-08-12T04:12:59.127Z,18.4
2022-08-12T04:16:11.281Z,18.3
2022-08-12T04:19:23.426Z,18.1
2022-08-12T04:22:35.577Z,18
2022-08-12T04:25:47.729Z,18
2022-08-12T04:28:59.880Z,18
2022-08-12T04:32:12.035Z,18
2022-08-12T04:35:23.209Z,18
2022-08-12T04:38:34.378Z,18.2
2022-08-12T04:41:46.519Z,18.2
2022-08-12T04:44:58.672Z,18.2
2022-08-12T04:48:10.837Z,18.2
2022-08-12T04:51:22.979Z,18.3
2022-08-12T04:54:35.136Z,18.3
2022-08-12T04:57:47.294Z,18.3
2022-08-12T05:00:59.437Z,18.4
2022-08-12T05:04:11.591Z,18.4
2022-08-12T05:07:23.735Z,18.4
2022-08-12T05:10:35.887Z,18.5
2022-08-12T05:13:48.040Z,18.5
2022-08-12T05:17:00.183Z,18.6
2022-08-12T05:20:11.372Z,18.7
2022-08-12T05:23:23.522Z,18.7
2022-08-12T05:26:35.657Z,18.7
2022-08-12T05:29:47.812Z,18.8
2022-08-12T05:32:59.974Z,18.9
2022-08-12T05:36:12.118Z,19
2022-08-12T05:39:24.275Z,19
2022-08-12T05:42:35.459Z,19.1
2022-08-12T05:45:46.611Z,19.2
2022-08-12T05:48:57.788Z,19.2
2022-08-12T05:52:08.965Z,19.3
2022-08-12T05:55:20.147Z,19.4
2022-08-12T05:58:31.302Z,19.4
2022-08-12T06:01:43.462Z,19.5
2022-08-12T06:04:55.618Z,19.6
2022-08-12T06:08:07.767Z,19.6
2022-08-12T06:11:19.918Z,19.6
2022-08-12T06:14:32.075Z,19.7
2022-08-12T06:17:44.231Z,19.7
2022-08-12T06:20:56.363Z,19.8
2022-08-12T06:24:08.529Z,19.8
2022-08-12T06:27:20.683Z,19.9
2022-08-12T06:30:32.832Z,20
2022-08-12T06:33:44.977Z,20
2022-08-12T06:36:57.138Z,20.1
2022-08-12T06:40:08.299Z,20.1
2022-08-12T06:43:20.446Z,20.2
2022-08-12T06:46:32.609Z,20.2
2022-08-12T06:49:44.754Z,20.3
2022-08-12T06:52:56.906Z,20.3
2022-08-12T06:56:09.055Z,20.4
2022-08-12T06:59:21.214Z,20.5
2022-08-12T07:02:32.386Z,20.6
2022-08-12T07:05:43.549Z,20.6
2022-08-12T07:08:54.737Z,20.7
2022-08-12T07:12:05.909Z,20.8
2022-08-12T07:15:18.059Z,20.9
2022-08-12T07:18:30.206Z,21
2022-08-12T07:21:42.349Z,21.1
2022-08-12T07:24:54.502Z,21.1
2022-08-12T07:28:06.648Z,21.2
2022-08-12T07:31:18.805Z,21.2
2022-08-12T07:34:30.967Z,21.3
2022-08-12T07:37:43.112Z,21.3
2022-08-12T07:40:55.265Z,21.3
2022-08-12T07:44:07.415Z,21.4
2022-08-12T07:47:19.567Z,21.5
2022-08-12T07:50:31.696Z,21.6
2022-08-12T07:53:42.862Z,21.7
2022-08-12T07:56:55.025Z,21.8
2022-08-12T08:00:07.180Z,21.9
2022-08-12T08:03:19.330Z,22
2022-08-12T08:06:31.469Z,22.1
2022-08-12T08:09:43.628Z,22.1
2022-08-12T08:12:55.765Z,22.2
2022-08-12T08:16:06.946Z,22.3
2022-08-12T08:19:18.122Z,22.4
2022-08-12T08:22:29.292Z,22.5
2022-08-12T08:25:40.460Z,22.5
2022-08-12T08:28:52.604Z,22.5
2022-08-12T08:32:04.770Z,22.6
2022-08-12T08:35:16.916Z,22.7
2022-08-12T08:38:29.058Z,22.7
2022-08-12T08:41:41.214Z,22.8
2022-08-12T08:44:53.356Z,22.9
2022-08-12T08:48:05.502Z,22.9
2022-08-12T08:51:17.664Z,22.9
2022-08-12T08:54:29.808Z,22.9
2022-08-12T08:57:41.957Z,23.1
2022-08-12T09:00:54.112Z,23.1
2022-08-12T09:04:06.272Z,23.3
2022-08-12T09:07:17.424Z,23.3
2022-08-12T09:10:29.586Z,23.3
2022-08-12T09:13:41.729Z,23.4
2022-08-12T09:16:53.869Z,23.5
2022-08-12T09:20:06.036Z,23.6
2022-08-12T09:23:18.178Z,23.6
2022-08-12T09:26:30.331Z,23.6
2022-08-12T09:29:41.509Z,23.5
2022-08-12T09:32:52.669Z,23.5
2022-08-12T09:36:04.813Z,23.5
2022-08-12T09:39:16.963Z,23.6
2022-08-12T09:42:29.112Z,23.6
2022-08-12T09:45:41.265Z,23.7
2022-08-12T09:48:53.425Z,23.8
2022-08-12T09:52:05.577Z,23.8
2022-08-12T09:55:17.715Z,23.8
2022-08-12T09:58:29.868Z,23.8
2022-08-12T10:01:42.015Z,23.9
2022-08-12T10:04:54.175Z,23.9
2022-08-12T10:08:06.314Z,23.9
2022-08-12T10:11:18.477Z,23.9
2022-08-12T10:14:29.640Z,23.9
2022-08-12T10:17:41.793Z,23.9
2022-08-12T10:20:53.940Z,24
2022-08-12T10:24:06.086Z,24.1
2022-08-12T10:27:18.237Z,24.1
2022-08-12T10:30:30.396Z,24.1
2022-08-12T10:33:42.547Z,24.1
2022-08-12T10:36:53.711Z,24.2
2022-08-12T10:40:04.878Z,24.2
2022-08-12T10:43:16.052Z,24.2
2022-08-12T10:46:27.219Z,24.3
2022-08-12T10:49:39.386Z,24.4
2022-08-12T10:52:51.539Z,24.4
2022-08-12T10:56:03.704Z,24.4
2022-08-12T10:59:15.852Z,24.4
2022-08-12T11:02:28.015Z,24.5
2022-08-12T11:05:40.165Z,24.5
2022-08-12T11:08:52.303Z,24.5
2022-08-12T11:12:04.449Z,24.6
2022-08-12T11:15:16.607Z,24.7
2022-08-12T11:18:28.760Z,24.8
2022-08-12T11:21:40.900Z,24.9
2022-08-12T11:24:53.000Z,25
2022-08-12T11:28:04.217Z,25
2022-08-12T11:31:16.378Z,25
2022-08-12T11:34:28.532Z,25
2022-08-12T11:37:40.680Z,25
2022-08-12T11:40:52.823Z,25.2
2022-08-12T11:44:04.988Z,25.3
2022-08-12T11:47:17.131Z,25.3
2022-08-12T11:50:28.301Z,25.3
2022-08-12T11:53:39.467Z,25.2
2022-08-12T11:56:50.651Z,25.3
2022-08-12T12:00:01.821Z,25.4
2022-08-12T12:03:13.976Z,25.4
2022-08-12T12:06:26.124Z,25.4
2022-08-12T12:09:38.260Z,25.3
2022-08-12T12:12:50.419Z,25.3
2022-08-12T12:16:02.569Z,25.3
2022-08-12T12:19:14.721Z,25.4
2022-08-12T12:22:26.875Z,25.4
2022-08-12T12:25:39.008Z,25.3
2022-08-12T12:28:51.176Z,25.4
2022-08-12T12:32:03.321Z,25.4
2022-08-12T12:35:15.474Z,25.4
2022-08-12T12:38:27.620Z,25.3
2022-08-12T12:41:39.770Z,25.3
2022-08-12T12:44:50.928Z,25.4
2022-08-12T12:48:03.089Z,25.4
2022-08-12T12:51:15.247Z,25.4
2022-08-12T12:54:27.386Z,25.4
2022-08-12T12:57:38.555Z,25.4
2022-08-12T13:00:50.722Z,25.6
2022-08-12T13:04:01.900Z,25.8
2022-08-12T13:07:13.068Z,25.9
2022-08-12T13:10:24.227Z,25.9
2022-08-12T13:13:35.409Z,25.9
2022-08-12T13:16:47.552Z,25.9
2022-08-12T13:19:59.710Z,25.9
2022-08-12T13:23:11.846Z,25.8
2022-08-12T13:26:24.004Z,25.8
2022-08-12T13:29:36.164Z,25.9
2022-08-12T13:32:48.318Z,26.1
2022-08-12T13:36:00.463Z,26.4
2022-08-12T13:39:12.602Z,26.6
2022-08-12T13:42:24.751Z,26.9
2022-08-12T13:45:36.906Z,27.2
2022-08-12T13:48:49.067Z,27.5
2022-08-12T13:52:01.212Z,27.7
2022-08-12T13:55:12.380Z,27.8
2022-08-12T13:58:24.519Z,27.9
2022-08-12T14:01:36.671Z,28
2022-08-12T14:04:48.829Z,28
2022-08-12T14:08:00.980Z,28.1
2022-08-12T14:11:13.126Z,28.3
2022-08-12T14:14:25.277Z,28.5
2022-08-12T14:17:36.452Z,28.5
2022-08-12T14:20:47.622Z,28.3
2022-08-12T14:23:58.804Z,28.2
2022-08-12T14:27:09.966Z,28
2022-08-12T14:33:34.278Z,27.8
2022-08-12T14:36:46.412Z,27.6
2022-08-12T14:39:58.579Z,27.5
2022-08-12T14:43:10.717Z,27.4
2022-08-12T14:46:22.872Z,27.3
2022-08-12T14:49:35.030Z,27.4
2022-08-12T14:52:47.000Z,27.5
2022-08-12T14:55:59.335Z,27.5
2022-08-12T14:59:11.470Z,27.5
2022-08-12T15:02:23.632Z,27.7
2022-08-12T15:05:35.771Z,27.8
2022-08-12T15:08:46.950Z,27.9
2022-08-12T15:11:59.101Z,28
2022-08-12T15:15:11.252Z,28.1
2022-08-12T15:18:23.386Z,28.2
2022-08-12T15:21:35.537Z,28.3
2022-08-12T15:24:47.695Z,28.3
2022-08-12T15:27:59.849Z,28.1
2022-08-12T15:31:11.987Z,28
2022-08-12T15:34:23.179Z,27.9
2022-08-12T15:37:34.332Z,27.7
2022-08-12T15:40:46.500Z,27.6
2022-08-12T15:43:58.634Z,27.5
2022-08-12T15:47:10.798Z,27.5
2022-08-12T15:50:22.945Z,27.5
2022-08-12T15:53:35.091Z,27.4
2022-08-12T15:56:47.244Z,27.4
2022-08-12T15:59:59.404Z,27.4
2022-08-12T16:03:11.545Z,27.5
2022-08-12T16:06:23.698Z,27.5
2022-08-12T16:09:35.847Z,27.5
2022-08-12T16:12:48.002Z,27.5
2022-08-12T16:16:00.147Z,27.5
2022-08-12T16:19:11.318Z,27.5
2022-08-12T16:22:23.463Z,27.5
2022-08-12T16:25:35.624Z,27.5
2022-08-12T16:28:47.774Z,27.5
2022-08-12T16:31:59.924Z,27.5
2022-08-12T16:35:12.078Z,27.5
2022-08-12T16:38:24.229Z,27.5
2022-08-12T16:41:35.407Z,27.4
2022-08-12T16:44:46.569Z,27.4
2022-08-12T16:47:57.743Z,27.3
2022-08-12T16:51:08.910Z,27.3
2022-08-12T16:54:20.097Z,27.2
2022-08-12T16:57:31.252Z,27.1
2022-08-12T17:00:43.408Z,27.1
2022-08-12T17:03:55.567Z,27.1
2022-08-12T17:07:07.701Z,27
2022-08-12T17:10:19.869Z,27
2022-08-12T17:13:32.016Z,27
2022-08-12T17:16:44.159Z,27
2022-08-12T17:19:56.313Z,26.9
2022-08-12T17:23:08.466Z,26.9
2022-08-12T17:26:20.629Z,26.9
2022-08-12T17:29:32.767Z,26.8
2022-08-12T17:32:44.916Z,26.8
2022-08-12T17:35:57.076Z,26.7
2022-08-12T17:39:08.242Z,26.7
2022-08-12T17:42:20.399Z,26.6
2022-08-12T17:45:32.544Z,26.6
2022-08-12T17:48:44.703Z,26.6
2022-08-12T17:51:56.840Z,26.6
2022-08-12T17:55:08.991Z,26.6
2022-08-12T17:58:21.152Z,26.5
2022-08-12T18:01:32.331Z,26.5
2022-08-12T18:04:43.497Z,26.5
2022-08-12T18:07:55.646Z,26.4
2022-08-12T18:11:07.796Z,26.4
2022-08-12T18:14:19.941Z,26.3
2022-08-12T18:17:32.000Z,26.3
2022-08-12T18:20:44.246Z,26.2
2022-08-12T18:23:56.398Z,26.2
2022-08-12T18:27:08.544Z,26.1
2022-08-12T18:30:20.711Z,26
2022-08-12T18:33:32.854Z,26
2022-08-12T18:36:45.007Z,26
2022-08-12T18:39:57.169Z,25.9
2022-08-12T18:43:09.303Z,25.9
2022-08-12T18:46:20.486Z,25.9
2022-08-12T18:49:32.632Z,25.8
2022-08-12T18:52:44.774Z,25.8
2022-08-12T18:55:56.934Z,25.7
2022-08-12T18:59:09.085Z,25.6
2022-08-12T19:02:21.225Z,25.6
2022-08-12T19:05:33.398Z,25.5
2022-08-12T19:08:44.562Z,25.4
2022-08-12T19:11:55.726Z,25.3
2022-08-12T19:15:06.915Z,25.2
2022-08-12T19:18:18.088Z,25.2
2022-08-12T19:21:30.243Z,25.1
2022-08-12T19:24:42.397Z,25.1
2022-08-12T19:27:54.542Z,25
2022-08-12T19:31:06.696Z,25
2022-08-12T19:34:18.847Z,24.9
2022-08-12T19:37:30.999Z,24.8
2022-08-12T19:40:43.149Z,24.7
2022-08-12T19:43:55.296Z,24.7
2022-08-12T19:47:07.449Z,24.6
2022-08-12T19:50:19.611Z,24.6
2022-08-12T19:53:31.751Z,24.5
2022-08-12T19:56:43.913Z,24.5
2022-08-12T19:59:55.072Z,24.4
2022-08-12T20:03:07.229Z,24.4
2022-08-12T20:06:19.375Z,24.4
2022-08-12T20:09:31.535Z,24.3
2022-08-12T20:12:43.692Z,24.3
2022-08-12T20:15:55.842Z,24.2
2022-08-12T20:19:07.990Z,24.2
2022-08-12T20:22:19.169Z,24.1
2022-08-12T20:25:30.346Z,24.1
2022-08-12T20:28:42.479Z,24
2022-08-12T20:31:54.642Z,24
2022-08-12T20:35:06.787Z,23.9
2022-08-12T20:38:18.940Z,23.9
2022-08-12T20:41:31.089Z,23.8
2022-08-12T20:44:43.244Z,23.8
2022-08-12T20:47:55.404Z,23.7
2022-08-12T20:51:07.556Z,23.7
2022-08-12T20:54:19.705Z,23.7
2022-08-12T20:57:31.858Z,23.7
2022-08-12T21:00:44.007Z,23.7
2022-08-12T21:03:56.167Z,23.6
2022-08-12T21:07:07.327Z,23.6
2022-08-12T21:10:19.467Z,23.6
2022-08-12T21:13:31.636Z,23.5
2022-08-12T21:16:43.782Z,23.4
2022-08-12T21:19:55.921Z,23.4
2022-08-12T21:23:08.079Z,23.3
2022-08-12T21:26:20.235Z,23.3
2022-08-12T21:29:31.421Z,23.3
2022-08-12T21:32:42.578Z,23.2
2022-08-12T21:35:53.748Z,23.2
2022-08-12T21:39:04.929Z,23.2
2022-08-12T21:42:17.067Z,23.1
2022-08-12T21:45:29.225Z,23.1
2022-08-12T21:48:41.378Z,23
2022-08-12T21:51:53.539Z,23
2022-08-12T21:55:05.694Z,22.9
2022-08-12T21:58:17.827Z,22.9
2022-08-12T22:01:29.983Z,22.8
2022-08-12T22:04:42.146Z,22.8
2022-08-12T22:07:54.282Z,22.8
2022-08-12T22:11:06.447Z,22.8
2022-08-12T22:14:18.594Z,22.8
2022-08-12T22:17:30.742Z,22.7
2022-08-12T22:20:41.902Z,22.7
2022-08-12T22:23:54.068Z,22.7
2022-08-12T22:27:06.206Z,22.7
2022-08-12T22:30:18.376Z,22.6
2022-08-12T22:33:30.516Z,22.6
2022-08-12T22:36:42.673Z,22.6
2022-08-12T22:39:54.825Z,22.6
2022-08-12T22:43:06.001Z,22.6
2022-08-12T22:46:17.168Z,22.5
2022-08-12T22:49:28.357Z,22.5
2022-08-12T22:52:39.512Z,22.5
2022-08-12T22:55:50.703Z,22.4
2022-08-12T22:59:01.864Z,22.4
2022-08-12T23:02:13.046Z,22.4
2022-08-12T23:05:24.215Z,22.4
2022-08-12T23:08:36.354Z,22.4
2022-08-12T23:11:48.515Z,22.3
2022-08-12T23:15:00.668Z,22.3
2022-08-12T23:18:12.803Z,22.2
2022-08-12T23:21:24.957Z,22.2
2022-08-12T23:24:37.105Z,22.2
2022-08-12T23:27:49.266Z,22.1
2022-08-12T23:31:01.420Z,22.1
2022-08-12T23:34:13.569Z,22.1
2022-08-12T23:37:25.714Z,22
2022-08-12T23:40:36.890Z,22
2022-08-12T23:43:49.041Z,22
2022-08-12T23:47:01.193Z,22
2022-08-12T23:50:13.353Z,22
2022-08-12T23:53:25.507Z,22
2022-08-12T23:56:37.649Z,21.9
2022-08-12T23:59:49.811Z,21.9
